sensor_id;sensor_type;location;lat;lon;timestamp;P1;durP1;ratioP1;P2;durP2;ratioP2
60714;SDS011;46564;53.096;8.246;2024-01-10T00:00:09;28.38;;;15.68;;
60714;SDS011;46564;53.096;8.246;2024-01-10T00:05:10;32.05;;;17.17;;
60714;SDS011;46564;53.096;8.246;2024-01-10T00:10:12;35.78;;;16.85;;
60714;SDS011;46564;53.096;8.246;2024-01-10T00:15:13;30.58;;;16.23;;
60714;SDS011;46564;53.096;8.246;2024-01-10T00:20:14;33.67;;;18.33;;
60714;SDS011;46564;53.096;8.246;2024-01-10T00:25:16;33.53;;;17.48;;
60714;SDS011;46564;53.096;8.246;2024-01-10T00:30:17;35.53;;;17.95;;
60714;SDS011;46564;53.096;8.246;2024-01-10T00:35:18;36.90;;;19.50;;
60714;SDS011;46564;53.096;8.246;2024-01-10T00:40:20;35.97;;;17.10;;
60714;SDS011;46564;53.096;8.246;2024-01-10T00:45:21;34.40;;;17.27;;
60714;SDS011;46564;53.096;8.246;2024-01-10T00:50:22;35.38;;;16.20;;
60714;SDS011;46564;53.096;8.246;2024-01-10T00:55:24;36.75;;;16.35;;
60714;SDS011;46564;53.096;8.246;2024-01-10T01:00:25;37.22;;;16.08;;
60714;SDS011;46564;53.096;8.246;2024-01-10T01:05:26;33.83;;;17.75;;
60714;SDS011;46564;53.096;8.246;2024-01-10T01:10:28;32.40;;;18.30;;
60714;SDS011;46564;53.096;8.246;2024-01-10T01:15:29;32.78;;;16.08;;
60714;SDS011;46564;53.096;8.246;2024-01-10T01:20:30;33.42;;;18.27;;
60714;SDS011;46564;53.096;8.246;2024-01-10T01:25:32;36.03;;;17.38;;
60714;SDS011;46564;53.096;8.246;2024-01-10T01:30:33;35.35;;;18.50;;
60714;SDS011;46564;53.096;8.246;2024-01-10T01:35:34;33.22;;;17.85;;
60714;SDS011;46564;53.096;8.246;2024-01-10T01:40:36;35.03;;;18.25;;
60714;SDS011;46564;53.096;8.246;2024-01-10T01:45:37;31.05;;;16.92;;
60714;SDS011;46564;53.096;8.246;2024-01-10T01:50:38;36.42;;;18.10;;
60714;SDS011;46564;53.096;8.246;2024-01-10T01:55:40;34.55;;;17.77;;
60714;SDS011;46564;53.096;8.246;2024-01-10T02:00:42;31.13;;;17.40;;
60714;SDS011;46564;53.096;8.246;2024-01-10T02:05:43;34.83;;;19.20;;
60714;SDS011;46564;53.096;8.246;2024-01-10T02:10:44;30.58;;;17.60;;
60714;SDS011;46564;53.096;8.246;2024-01-10T02:15:46;35.38;;;18.92;;
60714;SDS011;46564;53.096;8.246;2024-01-10T02:20:47;29.95;;;17.23;;
60714;SDS011;46564;53.096;8.246;2024-01-10T02:25:48;29.85;;;16.05;;
60714;SDS011;46564;53.096;8.246;2024-01-10T02:30:50;34.33;;;17.63;;
60714;SDS011;46564;53.096;8.246;2024-01-10T02:35:52;32.88;;;17.60;;
60714;SDS011;46564;53.096;8.246;2024-01-10T02:40:53;29.55;;;16.45;;
60714;SDS011;46564;53.096;8.246;2024-01-10T02:45:54;33.83;;;17.13;;
60714;SDS011;46564;53.096;8.246;2024-01-10T02:50:56;33.38;;;18.00;;
60714;SDS011;46564;53.096;8.246;2024-01-10T02:55:57;33.67;;;18.00;;
60714;SDS011;46564;53.096;8.246;2024-01-10T03:00:58;37.85;;;19.70;;
60714;SDS011;46564;53.096;8.246;2024-01-10T03:06:00;37.22;;;18.60;;
60714;SDS011;46564;53.096;8.246;2024-01-10T03:11:01;33.67;;;18.98;;
60714;SDS011;46564;53.096;8.246;2024-01-10T03:16:03;32.83;;;18.92;;
60714;SDS011;46564;53.096;8.246;2024-01-10T03:21:04;38.20;;;20.17;;
60714;SDS011;46564;53.096;8.246;2024-01-10T03:26:05;37.88;;;18.77;;
60714;SDS011;46564;53.096;8.246;2024-01-10T03:31:07;32.63;;;17.70;;
60714;SDS011;46564;53.096;8.246;2024-01-10T03:36:10;36.97;;;19.25;;
60714;SDS011;46564;53.096;8.246;2024-01-10T03:41:13;36.47;;;18.27;;
60714;SDS011;46564;53.096;8.246;2024-01-10T03:46:15;34.00;;;18.23;;
60714;SDS011;46564;53.096;8.246;2024-01-10T03:51:18;40.53;;;19.15;;
60714;SDS011;46564;53.096;8.246;2024-01-10T03:56:19;39.40;;;19.67;;
60714;SDS011;46564;53.096;8.246;2024-01-10T04:01:23;40.42;;;20.23;;
60714;SDS011;46564;53.096;8.246;2024-01-10T04:06:25;35.75;;;19.35;;
60714;SDS011;46564;53.096;8.246;2024-01-10T04:11:26;30.98;;;17.50;;
60714;SDS011;46564;53.096;8.246;2024-01-10T04:16:27;35.40;;;19.33;;
60714;SDS011;46564;53.096;8.246;2024-01-10T04:21:29;37.50;;;20.60;;
60714;SDS011;46564;53.096;8.246;2024-01-10T04:26:30;37.45;;;19.30;;
60714;SDS011;46564;53.096;8.246;2024-01-10T04:31:31;38.53;;;20.05;;
60714;SDS011;46564;53.096;8.246;2024-01-10T04:36:32;35.13;;;18.77;;
60714;SDS011;46564;53.096;8.246;2024-01-10T04:41:34;36.80;;;19.27;;
60714;SDS011;46564;53.096;8.246;2024-01-10T04:46:35;35.67;;;18.75;;
60714;SDS011;46564;53.096;8.246;2024-01-10T04:51:36;39.65;;;21.15;;
60714;SDS011;46564;53.096;8.246;2024-01-10T04:56:37;43.00;;;22.27;;
60714;SDS011;46564;53.096;8.246;2024-01-10T05:01:39;38.20;;;20.67;;
60714;SDS011;46564;53.096;8.246;2024-01-10T05:06:40;35.38;;;18.70;;
60714;SDS011;46564;53.096;8.246;2024-01-10T05:11:41;51.80;;;21.00;;
60714;SDS011;46564;53.096;8.246;2024-01-10T05:16:45;39.17;;;20.20;;
60714;SDS011;46564;53.096;8.246;2024-01-10T05:21:46;42.25;;;20.67;;
60714;SDS011;46564;53.096;8.246;2024-01-10T05:26:48;45.05;;;21.60;;
60714;SDS011;46564;53.096;8.246;2024-01-10T05:31:49;41.38;;;19.45;;
60714;SDS011;46564;53.096;8.246;2024-01-10T05:36:50;43.95;;;20.65;;
60714;SDS011;46564;53.096;8.246;2024-01-10T05:41:52;43.80;;;22.05;;
60714;SDS011;46564;53.096;8.246;2024-01-10T05:46:53;42.03;;;20.35;;
60714;SDS011;46564;53.096;8.246;2024-01-10T05:51:54;47.08;;;22.95;;
60714;SDS011;46564;53.096;8.246;2024-01-10T05:56:55;41.17;;;20.88;;
60714;SDS011;46564;53.096;8.246;2024-01-10T06:01:57;42.13;;;21.02;;
60714;SDS011;46564;53.096;8.246;2024-01-10T06:06:59;39.63;;;19.92;;
60714;SDS011;46564;53.096;8.246;2024-01-10T06:12:00;44.83;;;20.02;;
60714;SDS011;46564;53.096;8.246;2024-01-10T06:17:01;39.40;;;20.58;;
60714;SDS011;46564;53.096;8.246;2024-01-10T06:22:03;48.13;;;22.02;;
60714;SDS011;46564;53.096;8.246;2024-01-10T06:27:04;50.90;;;21.90;;
60714;SDS011;46564;53.096;8.246;2024-01-10T06:32:05;46.90;;;21.65;;
60714;SDS011;46564;53.096;8.246;2024-01-10T06:37:07;46.47;;;19.60;;
60714;SDS011;46564;53.096;8.246;2024-01-10T06:42:08;48.45;;;19.08;;
60714;SDS011;46564;53.096;8.246;2024-01-10T06:47:09;41.90;;;20.38;;
60714;SDS011;46564;53.096;8.246;2024-01-10T06:52:11;48.92;;;22.23;;
60714;SDS011;46564;53.096;8.246;2024-01-10T06:57:12;46.53;;;20.67;;
60714;SDS011;46564;53.096;8.246;2024-01-10T07:02:13;43.72;;;19.63;;
60714;SDS011;46564;53.096;8.246;2024-01-10T07:07:15;44.08;;;19.70;;
60714;SDS011;46564;53.096;8.246;2024-01-10T07:12:16;52.40;;;21.65;;
60714;SDS011;46564;53.096;8.246;2024-01-10T07:17:18;54.80;;;23.23;;
60714;SDS011;46564;53.096;8.246;2024-01-10T07:22:19;64.07;;;25.08;;
60714;SDS011;46564;53.096;8.246;2024-01-10T07:27:20;68.70;;;27.40;;
60714;SDS011;46564;53.096;8.246;2024-01-10T07:32:21;45.65;;;19.88;;
60714;SDS011;46564;53.096;8.246;2024-01-10T07:37:23;50.40;;;19.60;;
60714;SDS011;46564;53.096;8.246;2024-01-10T07:42:24;47.72;;;19.45;;
60714;SDS011;46564;53.096;8.246;2024-01-10T07:47:25;47.83;;;20.45;;
60714;SDS011;46564;53.096;8.246;2024-01-10T07:52:27;44.33;;;19.98;;
60714;SDS011;46564;53.096;8.246;2024-01-10T07:57:28;41.78;;;18.80;;
60714;SDS011;46564;53.096;8.246;2024-01-10T08:02:29;41.83;;;17.92;;
60714;SDS011;46564;53.096;8.246;2024-01-10T08:07:31;44.60;;;18.23;;
60714;SDS011;46564;53.096;8.246;2024-01-10T08:12:32;52.92;;;20.33;;
60714;SDS011;46564;53.096;8.246;2024-01-10T08:17:34;49.00;;;21.10;;
60714;SDS011;46564;53.096;8.246;2024-01-10T08:22:35;39.42;;;16.92;;
60714;SDS011;46564;53.096;8.246;2024-01-10T08:27:36;43.28;;;18.10;;
60714;SDS011;46564;53.096;8.246;2024-01-10T08:32:38;43.35;;;18.63;;
60714;SDS011;46564;53.096;8.246;2024-01-10T08:37:39;43.15;;;17.77;;
60714;SDS011;46564;53.096;8.246;2024-01-10T08:42:41;47.72;;;19.75;;
60714;SDS011;46564;53.096;8.246;2024-01-10T08:47:42;43.03;;;18.75;;
60714;SDS011;46564;53.096;8.246;2024-01-10T08:52:43;46.78;;;19.05;;
60714;SDS011;46564;53.096;8.246;2024-01-10T08:57:45;40.22;;;17.33;;
60714;SDS011;46564;53.096;8.246;2024-01-10T09:02:46;47.60;;;18.48;;
60714;SDS011;46564;53.096;8.246;2024-01-10T09:07:48;39.03;;;17.27;;
60714;SDS011;46564;53.096;8.246;2024-01-10T09:12:49;48.33;;;18.67;;
60714;SDS011;46564;53.096;8.246;2024-01-10T09:17:50;43.28;;;19.40;;
60714;SDS011;46564;53.096;8.246;2024-01-10T09:22:52;43.90;;;18.15;;
60714;SDS011;46564;53.096;8.246;2024-01-10T09:27:53;47.97;;;18.08;;
60714;SDS011;46564;53.096;8.246;2024-01-10T09:32:54;41.83;;;16.65;;
60714;SDS011;46564;53.096;8.246;2024-01-10T09:37:56;45.65;;;17.52;;
60714;SDS011;46564;53.096;8.246;2024-01-10T09:42:57;38.10;;;16.48;;
60714;SDS011;46564;53.096;8.246;2024-01-10T09:47:59;32.97;;;13.85;;
60714;SDS011;46564;53.096;8.246;2024-01-10T09:53:05;39.95;;;15.80;;
60714;SDS011;46564;53.096;8.246;2024-01-10T09:58:07;41.13;;;16.00;;
60714;SDS011;46564;53.096;8.246;2024-01-10T10:03:09;44.03;;;17.35;;
60714;SDS011;46564;53.096;8.246;2024-01-10T10:08:12;34.90;;;15.32;;
60714;SDS011;46564;53.096;8.246;2024-01-10T10:13:26;35.50;;;13.57;;
60714;SDS011;46564;53.096;8.246;2024-01-10T10:18:28;31.02;;;11.77;;
60714;SDS011;46564;53.096;8.246;2024-01-10T10:23:29;36.55;;;14.02;;
60714;SDS011;46564;53.096;8.246;2024-01-10T10:28:30;31.35;;;12.88;;
60714;SDS011;46564;53.096;8.246;2024-01-10T10:33:36;30.85;;;12.90;;
60714;SDS011;46564;53.096;8.246;2024-01-10T10:38:37;30.92;;;11.88;;
60714;SDS011;46564;53.096;8.246;2024-01-10T10:43:39;29.02;;;11.85;;
60714;SDS011;46564;53.096;8.246;2024-01-10T10:48:42;33.45;;;12.00;;
60714;SDS011;46564;53.096;8.246;2024-01-10T10:53:43;32.97;;;12.57;;
60714;SDS011;46564;53.096;8.246;2024-01-10T10:58:45;29.38;;;12.52;;
60714;SDS011;46564;53.096;8.246;2024-01-10T11:03:47;36.45;;;13.20;;
60714;SDS011;46564;53.096;8.246;2024-01-10T11:08:58;25.42;;;11.32;;
60714;SDS011;46564;53.096;8.246;2024-01-10T11:14:09;28.60;;;11.32;;
60714;SDS011;46564;53.096;8.246;2024-01-10T11:24:23;33.08;;;12.07;;
60714;SDS011;46564;53.096;8.246;2024-01-10T11:29:28;29.83;;;13.15;;
60714;SDS011;46564;53.096;8.246;2024-01-10T11:34:29;30.35;;;12.05;;
60714;SDS011;46564;53.096;8.246;2024-01-10T11:39:30;31.40;;;12.05;;
60714;SDS011;46564;53.096;8.246;2024-01-10T11:44:32;24.42;;;10.90;;
60714;SDS011;46564;53.096;8.246;2024-01-10T11:49:33;21.00;;;8.65;;
60714;SDS011;46564;53.096;8.246;2024-01-10T11:54:38;27.63;;;10.05;;
60714;SDS011;46564;53.096;8.246;2024-01-10T11:59:41;31.08;;;12.98;;
60714;SDS011;46564;53.096;8.246;2024-01-10T12:04:42;20.20;;;8.43;;
60714;SDS011;46564;53.096;8.246;2024-01-10T12:09:50;17.42;;;7.38;;
60714;SDS011;46564;53.096;8.246;2024-01-10T12:14:51;18.23;;;7.63;;
60714;SDS011;46564;53.096;8.246;2024-01-10T12:19:53;17.10;;;6.72;;
60714;SDS011;46564;53.096;8.246;2024-01-10T12:24:54;19.00;;;7.10;;
60714;SDS011;46564;53.096;8.246;2024-01-10T12:29:55;15.15;;;6.30;;
60714;SDS011;46564;53.096;8.246;2024-01-10T12:35:01;16.00;;;6.57;;
60714;SDS011;46564;53.096;8.246;2024-01-10T12:40:03;15.68;;;6.15;;
60714;SDS011;46564;53.096;8.246;2024-01-10T12:45:19;15.85;;;5.85;;
60714;SDS011;46564;53.096;8.246;2024-01-10T12:50:21;14.13;;;5.63;;
60714;SDS011;46564;53.096;8.246;2024-01-10T12:55:25;15.10;;;5.72;;
60714;SDS011;46564;53.096;8.246;2024-01-10T13:00:26;15.00;;;5.25;;
60714;SDS011;46564;53.096;8.246;2024-01-10T13:05:28;17.73;;;5.78;;
60714;SDS011;46564;53.096;8.246;2024-01-10T13:10:29;15.25;;;5.60;;
60714;SDS011;46564;53.096;8.246;2024-01-10T13:15:31;21.67;;;8.07;;
60714;SDS011;46564;53.096;8.246;2024-01-10T13:20:32;15.23;;;5.93;;
60714;SDS011;46564;53.096;8.246;2024-01-10T13:25:34;13.85;;;5.38;;
60714;SDS011;46564;53.096;8.246;2024-01-10T13:30:35;15.93;;;5.57;;
60714;SDS011;46564;53.096;8.246;2024-01-10T13:35:37;14.82;;;5.90;;
60714;SDS011;46564;53.096;8.246;2024-01-10T13:40:38;16.92;;;6.75;;
60714;SDS011;46564;53.096;8.246;2024-01-10T13:45:40;13.48;;;6.63;;
60714;SDS011;46564;53.096;8.246;2024-01-10T13:50:41;14.23;;;5.47;;
60714;SDS011;46564;53.096;8.246;2024-01-10T13:55:42;12.48;;;5.13;;
60714;SDS011;46564;53.096;8.246;2024-01-10T14:00:44;14.95;;;5.20;;
60714;SDS011;46564;53.096;8.246;2024-01-10T14:05:45;13.63;;;5.35;;
60714;SDS011;46564;53.096;8.246;2024-01-10T14:10:47;16.35;;;6.47;;
60714;SDS011;46564;53.096;8.246;2024-01-10T14:15:48;14.27;;;5.88;;
60714;SDS011;46564;53.096;8.246;2024-01-10T14:20:49;19.42;;;7.13;;
60714;SDS011;46564;53.096;8.246;2024-01-10T14:25:51;20.50;;;7.78;;
60714;SDS011;46564;53.096;8.246;2024-01-10T14:30:52;16.73;;;7.18;;
60714;SDS011;46564;53.096;8.246;2024-01-10T14:36:09;16.38;;;7.07;;
60714;SDS011;46564;53.096;8.246;2024-01-10T14:41:11;18.13;;;7.40;;
60714;SDS011;46564;53.096;8.246;2024-01-10T14:46:12;17.20;;;7.13;;
60714;SDS011;46564;53.096;8.246;2024-01-10T14:51:13;18.20;;;7.68;;
60714;SDS011;46564;53.096;8.246;2024-01-10T14:56:15;14.50;;;6.22;;
60714;SDS011;46564;53.096;8.246;2024-01-10T15:01:16;18.80;;;6.72;;
60714;SDS011;46564;53.096;8.246;2024-01-10T15:06:18;15.13;;;6.25;;
60714;SDS011;46564;53.096;8.246;2024-01-10T15:11:19;17.20;;;7.13;;
60714;SDS011;46564;53.096;8.246;2024-01-10T15:16:20;15.27;;;7.22;;
60714;SDS011;46564;53.096;8.246;2024-01-10T15:21:22;16.30;;;6.88;;
60714;SDS011;46564;53.096;8.246;2024-01-10T15:26:23;18.00;;;8.55;;
60714;SDS011;46564;53.096;8.246;2024-01-10T15:31:24;19.63;;;8.13;;
60714;SDS011;46564;53.096;8.246;2024-01-10T15:36:26;19.83;;;8.82;;
60714;SDS011;46564;53.096;8.246;2024-01-10T15:41:29;17.80;;;9.20;;
60714;SDS011;46564;53.096;8.246;2024-01-10T15:46:30;20.35;;;8.15;;
60714;SDS011;46564;53.096;8.246;2024-01-10T15:51:33;19.95;;;9.13;;
60714;SDS011;46564;53.096;8.246;2024-01-10T15:56:34;20.95;;;9.05;;
60714;SDS011;46564;53.096;8.246;2024-01-10T16:01:35;20.08;;;8.65;;
60714;SDS011;46564;53.096;8.246;2024-01-10T16:06:37;23.92;;;9.63;;
60714;SDS011;46564;53.096;8.246;2024-01-10T16:11:42;24.00;;;10.55;;
60714;SDS011;46564;53.096;8.246;2024-01-10T16:16:43;21.42;;;9.18;;
60714;SDS011;46564;53.096;8.246;2024-01-10T16:21:44;22.10;;;9.75;;
60714;SDS011;46564;53.096;8.246;2024-01-10T16:26:46;23.40;;;8.85;;
60714;SDS011;46564;53.096;8.246;2024-01-10T16:31:47;26.40;;;9.50;;
60714;SDS011;46564;53.096;8.246;2024-01-10T16:36:48;24.30;;;10.35;;
60714;SDS011;46564;53.096;8.246;2024-01-10T16:41:50;24.67;;;10.55;;
60714;SDS011;46564;53.096;8.246;2024-01-10T16:46:51;22.77;;;10.95;;
60714;SDS011;46564;53.096;8.246;2024-01-10T16:51:52;20.58;;;10.23;;
60714;SDS011;46564;53.096;8.246;2024-01-10T16:56:53;19.90;;;9.13;;
60714;SDS011;46564;53.096;8.246;2024-01-10T17:01:55;19.33;;;9.35;;
60714;SDS011;46564;53.096;8.246;2024-01-10T17:06:56;20.33;;;10.98;;
60714;SDS011;46564;53.096;8.246;2024-01-10T17:11:57;22.35;;;10.85;;
60714;SDS011;46564;53.096;8.246;2024-01-10T17:16:59;26.63;;;13.50;;
60714;SDS011;46564;53.096;8.246;2024-01-10T17:22:00;25.15;;;13.85;;
60714;SDS011;46564;53.096;8.246;2024-01-10T17:27:01;21.73;;;11.32;;
60714;SDS011;46564;53.096;8.246;2024-01-10T17:32:03;25.73;;;13.10;;
60714;SDS011;46564;53.096;8.246;2024-01-10T17:37:04;24.35;;;12.15;;
60714;SDS011;46564;53.096;8.246;2024-01-10T17:42:06;23.65;;;11.60;;
60714;SDS011;46564;53.096;8.246;2024-01-10T17:47:07;24.17;;;12.52;;
60714;SDS011;46564;53.096;8.246;2024-01-10T17:52:08;29.83;;;13.25;;
60714;SDS011;46564;53.096;8.246;2024-01-10T17:57:10;30.00;;;14.32;;
60714;SDS011;46564;53.096;8.246;2024-01-10T18:02:11;25.10;;;12.48;;
60714;SDS011;46564;53.096;8.246;2024-01-10T18:07:13;27.42;;;13.32;;
60714;SDS011;46564;53.096;8.246;2024-01-10T18:12:14;25.73;;;12.38;;
60714;SDS011;46564;53.096;8.246;2024-01-10T18:17:15;28.65;;;13.70;;
60714;SDS011;46564;53.096;8.246;2024-01-10T18:22:17;28.58;;;14.23;;
60714;SDS011;46564;53.096;8.246;2024-01-10T18:27:18;30.02;;;13.90;;
60714;SDS011;46564;53.096;8.246;2024-01-10T18:32:19;27.05;;;12.60;;
60714;SDS011;46564;53.096;8.246;2024-01-10T18:37:21;30.30;;;13.75;;
60714;SDS011;46564;53.096;8.246;2024-01-10T18:42:22;26.90;;;13.30;;
60714;SDS011;46564;53.096;8.246;2024-01-10T18:47:24;25.40;;;12.40;;
60714;SDS011;46564;53.096;8.246;2024-01-10T18:52:26;27.45;;;13.55;;
60714;SDS011;46564;53.096;8.246;2024-01-10T18:57:28;26.92;;;13.48;;
60714;SDS011;46564;53.096;8.246;2024-01-10T19:02:29;25.92;;;12.95;;
60714;SDS011;46564;53.096;8.246;2024-01-10T19:07:30;28.65;;;15.05;;
60714;SDS011;46564;53.096;8.246;2024-01-10T19:12:32;27.13;;;14.68;;
60714;SDS011;46564;53.096;8.246;2024-01-10T19:17:33;31.67;;;16.13;;
60714;SDS011;46564;53.096;8.246;2024-01-10T19:22:35;26.67;;;15.20;;
60714;SDS011;46564;53.096;8.246;2024-01-10T19:27:36;30.52;;;15.52;;
60714;SDS011;46564;53.096;8.246;2024-01-10T19:32:37;35.17;;;17.95;;
60714;SDS011;46564;53.096;8.246;2024-01-10T19:37:39;37.33;;;17.98;;
60714;SDS011;46564;53.096;8.246;2024-01-10T19:42:40;36.45;;;16.95;;
60714;SDS011;46564;53.096;8.246;2024-01-10T19:47:41;38.72;;;19.58;;
60714;SDS011;46564;53.096;8.246;2024-01-10T19:52:43;37.67;;;19.42;;
60714;SDS011;46564;53.096;8.246;2024-01-10T19:57:44;42.28;;;20.58;;
60714;SDS011;46564;53.096;8.246;2024-01-10T20:02:45;39.17;;;19.35;;
60714;SDS011;46564;53.096;8.246;2024-01-10T20:07:46;45.63;;;22.40;;
60714;SDS011;46564;53.096;8.246;2024-01-10T20:12:48;39.90;;;20.55;;
60714;SDS011;46564;53.096;8.246;2024-01-10T20:17:49;34.58;;;17.83;;
60714;SDS011;46564;53.096;8.246;2024-01-10T20:22:51;37.38;;;18.75;;
60714;SDS011;46564;53.096;8.246;2024-01-10T20:27:52;40.45;;;19.08;;
60714;SDS011;46564;53.096;8.246;2024-01-10T20:32:53;41.42;;;18.85;;
60714;SDS011;46564;53.096;8.246;2024-01-10T20:37:55;42.25;;;20.83;;
60714;SDS011;46564;53.096;8.246;2024-01-10T20:42:56;43.85;;;21.98;;
60714;SDS011;46564;53.096;8.246;2024-01-10T20:47:57;42.00;;;18.95;;
60714;SDS011;46564;53.096;8.246;2024-01-10T20:52:59;40.97;;;20.67;;
60714;SDS011;46564;53.096;8.246;2024-01-10T20:58:00;46.55;;;21.45;;
60714;SDS011;46564;53.096;8.246;2024-01-10T21:03:02;40.00;;;21.02;;
60714;SDS011;46564;53.096;8.246;2024-01-10T21:08:04;41.40;;;20.23;;
60714;SDS011;46564;53.096;8.246;2024-01-10T21:13:05;45.22;;;22.67;;
60714;SDS011;46564;53.096;8.246;2024-01-10T21:18:07;41.13;;;20.48;;
60714;SDS011;46564;53.096;8.246;2024-01-10T21:23:09;39.92;;;19.27;;
60714;SDS011;46564;53.096;8.246;2024-01-10T21:28:10;45.67;;;22.00;;
60714;SDS011;46564;53.096;8.246;2024-01-10T21:33:11;45.72;;;22.67;;
60714;SDS011;46564;53.096;8.246;2024-01-10T21:38:13;44.60;;;21.23;;
60714;SDS011;46564;53.096;8.246;2024-01-10T21:43:14;42.22;;;21.17;;
60714;SDS011;46564;53.096;8.246;2024-01-10T21:48:15;42.63;;;22.10;;
60714;SDS011;46564;53.096;8.246;2024-01-10T21:53:17;41.20;;;20.83;;
60714;SDS011;46564;53.096;8.246;2024-01-10T21:58:18;46.72;;;21.52;;
60714;SDS011;46564;53.096;8.246;2024-01-10T22:03:19;50.72;;;24.17;;
60714;SDS011;46564;53.096;8.246;2024-01-10T22:08:35;48.45;;;23.33;;
60714;SDS011;46564;53.096;8.246;2024-01-10T22:13:36;46.08;;;22.35;;
60714;SDS011;46564;53.096;8.246;2024-01-10T22:18:38;43.90;;;20.60;;
60714;SDS011;46564;53.096;8.246;2024-01-10T22:23:39;45.15;;;21.70;;
60714;SDS011;46564;53.096;8.246;2024-01-10T22:28:40;42.40;;;21.50;;
60714;SDS011;46564;53.096;8.246;2024-01-10T22:33:41;50.92;;;20.00;;
60714;SDS011;46564;53.096;8.246;2024-01-10T22:38:43;47.03;;;22.20;;
60714;SDS011;46564;53.096;8.246;2024-01-10T22:43:44;47.53;;;21.50;;
60714;SDS011;46564;53.096;8.246;2024-01-10T22:48:45;47.72;;;20.30;;
60714;SDS011;46564;53.096;8.246;2024-01-10T22:53:47;50.67;;;20.92;;
60714;SDS011;46564;53.096;8.246;2024-01-10T22:58:48;41.25;;;20.08;;
60714;SDS011;46564;53.096;8.246;2024-01-10T23:03:49;43.58;;;20.25;;
60714;SDS011;46564;53.096;8.246;2024-01-10T23:08:53;48.95;;;21.15;;
60714;SDS011;46564;53.096;8.246;2024-01-10T23:13:55;47.15;;;20.95;;
60714;SDS011;46564;53.096;8.246;2024-01-10T23:18:56;44.95;;;21.38;;
60714;SDS011;46564;53.096;8.246;2024-01-10T23:23:58;49.03;;;19.48;;
60714;SDS011;46564;53.096;8.246;2024-01-10T23:28:59;48.05;;;21.40;;
60714;SDS011;46564;53.096;8.246;2024-01-10T23:34:01;47.28;;;20.35;;
60714;SDS011;46564;53.096;8.246;2024-01-10T23:39:03;48.35;;;22.08;;
60714;SDS011;46564;53.096;8.246;2024-01-10T23:44:05;51.65;;;21.42;;
60714;SDS011;46564;53.096;8.246;2024-01-10T23:49:06;45.95;;;19.92;;
60714;SDS011;46564;53.096;8.246;2024-01-10T23:54:07;48.97;;;20.88;;
60714;SDS011;46564;53.096;8.246;2024-01-10T23:59:08;43.38;;;20.00;;
